createdAt,value
2023-04-27T00:01:00.786Z,102294.94
2023-04-27T00:03:28.500Z,102291.44
2023-04-27T00:05:55.382Z,102292.13
2023-04-27T00:08:22.084Z,102299.09
2023-04-27T00:10:48.564Z,102295.94
2023-04-27T00:13:15.025Z,102297.88
2023-04-27T00:15:41.704Z,102305.56
2023-04-27T00:18:08.377Z,102303.25
2023-04-27T00:20:34.911Z,102297.47
2023-04-27T00:23:01.430Z,102306.38
2023-04-27T00:25:28.009Z,102310.78
2023-04-27T00:27:54.528Z,102306.44
2023-04-27T00:30:21.159Z,102304.00
2023-04-27T00:32:47.807Z,102302.34
2023-04-27T00:35:14.465Z,102295.53
2023-04-27T00:37:41.340Z,102281.97
2023-04-27T00:40:08.586Z,102292.09
2023-04-27T00:42:35.795Z,102293.34
2023-04-27T00:45:03.307Z,102297.75
2023-04-27T00:47:30.546Z,102293.78
2023-04-27T00:49:57.170Z,102300.19
2023-04-27T00:52:23.671Z,102300.59
2023-04-27T00:54:51.892Z,102299.63
2023-04-27T00:57:18.883Z,102299.91
2023-04-27T00:59:46.141Z,102300.72
2023-04-27T01:02:13.706Z,102302.91
2023-04-27T01:04:41.038Z,102296.63
2023-04-27T01:07:08.076Z,102295.81
2023-04-27T01:09:34.650Z,102291.84
2023-04-27T01:12:01.287Z,102290.75
2023-04-27T01:14:27.771Z,102288.84
2023-04-27T01:16:54.278Z,102285.03
2023-04-27T01:19:20.794Z,102286.97
2023-04-27T01:21:47.288Z,102291.34
2023-04-27T01:24:13.804Z,102286.31
2023-04-27T01:26:40.556Z,102291.34
2023-04-27T01:29:07.143Z,102287.94
2023-04-27T01:31:33.702Z,102294.38
2023-04-27T01:34:00.231Z,102298.59
2023-04-27T01:36:27.691Z,102304.19
2023-04-27T01:38:54.232Z,102291.22
2023-04-27T01:41:20.854Z,102286.44
2023-04-27T01:43:47.395Z,102291.50
2023-04-27T01:46:14.815Z,102285.22
2023-04-27T01:48:42.683Z,102276.22
2023-04-27T01:51:09.180Z,102265.41
2023-04-27T01:53:35.651Z,102274.97
2023-04-27T01:56:02.155Z,102265.97
2023-04-27T01:58:28.648Z,102270.75
2023-04-27T02:00:55.262Z,102271.97
2023-04-27T02:03:22.299Z,102268.97
2023-04-27T02:05:49.055Z,102275.94
2023-04-27T02:08:15.604Z,102277.44
2023-04-27T02:10:42.240Z,102271.97
2023-04-27T02:13:09.797Z,102272.66
2023-04-27T02:15:36.601Z,102276.63
2023-04-27T02:18:03.866Z,102283.19
2023-04-27T02:20:33.651Z,102281.69
2023-04-27T02:23:01.014Z,102279.25
2023-04-27T02:25:27.902Z,102279.25
2023-04-27T02:27:55.087Z,102275.81
2023-04-27T02:30:22.501Z,102279.63
2023-04-27T02:32:49.888Z,102276.50
2023-04-27T02:35:16.542Z,102270.50
2023-04-27T02:37:43.021Z,102272.00
2023-04-27T02:40:10.322Z,102269.81
2023-04-27T02:42:38.872Z,102271.47
2023-04-27T02:45:07.502Z,102259.44
2023-04-27T02:47:34.403Z,102259.19
2023-04-27T02:50:01.660Z,102262.03
2023-04-27T02:52:28.152Z,102259.84
2023-04-27T02:54:54.664Z,102257.94
2023-04-27T02:57:21.308Z,102257.53
2023-04-27T02:59:47.792Z,102254.94
2023-04-27T03:02:14.574Z,102260.53
2023-04-27T03:04:41.218Z,102260.28
2023-04-27T03:07:07.721Z,102268.16
2023-04-27T03:09:34.256Z,102267.59
2023-04-27T03:12:01.274Z,102260.66
2023-04-27T03:14:27.769Z,102265.97
2023-04-27T03:16:56.165Z,102267.59
2023-04-27T03:19:23.099Z,102274.19
2023-04-27T03:21:49.549Z,102274.19
2023-04-27T03:24:16.569Z,102274.31
2023-04-27T03:26:43.020Z,102279.63
2023-04-27T03:29:10.000Z,102276.34
2023-04-27T03:31:36.566Z,102278.25
2023-04-27T03:34:03.292Z,102272.13
2023-04-27T03:36:29.842Z,102271.16
2023-04-27T03:38:56.288Z,102275.94
2023-04-27T03:41:22.766Z,102269.25
2023-04-27T03:43:50.816Z,102262.94
2023-04-27T03:46:17.369Z,102269.50
2023-04-27T03:48:44.011Z,102272.91
2023-04-27T03:51:10.532Z,102269.78
2023-04-27T03:53:37.015Z,102277.69
2023-04-27T03:56:03.800Z,102277.13
2023-04-27T03:58:30.779Z,102278.91
2023-04-27T04:00:57.318Z,102277.38
2023-04-27T04:03:23.984Z,102275.19
2023-04-27T04:05:50.580Z,102271.66
2023-04-27T04:08:17.064Z,102272.47
2023-04-27T04:10:43.503Z,102268.09
2023-04-27T04:13:09.956Z,102278.47
2023-04-27T04:15:36.486Z,102273.59
2023-04-27T04:18:03.137Z,102268.53
2023-04-27T04:20:29.628Z,102283.38
2023-04-27T04:22:56.147Z,102283.38
2023-04-27T04:25:22.612Z,102286.94
2023-04-27T04:27:49.131Z,102291.28
2023-04-27T04:30:15.894Z,102282.03
2023-04-27T04:32:42.413Z,102299.34
2023-04-27T04:35:09.305Z,102300.31
2023-04-27T04:37:36.404Z,102302.06
2023-04-27T04:40:10.519Z,102297.59
2023-04-27T04:42:37.973Z,102297.47
2023-04-27T04:45:05.281Z,102303.75
2023-04-27T04:47:32.280Z,102312.91
2023-04-27T04:49:58.979Z,102310.47
2023-04-27T04:52:25.456Z,102304.72
2023-04-27T04:54:53.092Z,102315.09
2023-04-27T04:57:19.717Z,102317.59
2023-04-27T04:59:46.164Z,102316.22
2023-04-27T05:02:12.692Z,102317.16
2023-04-27T05:04:39.208Z,102308.25
2023-04-27T05:07:06.715Z,102307.41
2023-04-27T05:09:33.314Z,102304.41
2023-04-27T05:12:01.805Z,102297.59
2023-04-27T05:14:28.337Z,102307.59
2023-04-27T05:16:54.792Z,102301.56
2023-04-27T05:19:21.531Z,102299.09
2023-04-27T05:21:48.377Z,102297.38
2023-04-27T05:24:14.838Z,102300.03
2023-04-27T05:26:43.232Z,102298.09
2023-04-27T05:29:09.688Z,102294.00
2023-04-27T05:31:36.253Z,102299.06
2023-04-27T05:34:02.835Z,102301.41
2023-04-27T05:36:29.604Z,102301.03
2023-04-27T05:38:56.527Z,102310.56
2023-04-27T05:41:23.803Z,102315.41
2023-04-27T05:43:50.375Z,102315.84
2023-04-27T05:46:16.994Z,102312.81
2023-04-27T05:48:43.569Z,102307.59
2023-04-27T05:51:10.038Z,102309.72
2023-04-27T05:53:36.593Z,102306.72
2023-04-27T05:56:04.628Z,102315.25
2023-04-27T05:58:31.356Z,102313.47
2023-04-27T06:00:57.921Z,102312.97
2023-04-27T06:03:24.860Z,102303.66
2023-04-27T06:05:59.615Z,102310.66
2023-04-27T06:08:27.502Z,102306.06
2023-04-27T06:10:54.423Z,102307.44
2023-04-27T06:13:21.776Z,102309.41
2023-04-27T06:15:48.331Z,102311.50
2023-04-27T06:18:14.900Z,102301.47
2023-04-27T06:20:42.870Z,102308.31
2023-04-27T06:23:09.351Z,102306.72
2023-04-27T06:25:37.519Z,102295.13
2023-04-27T06:28:04.160Z,102312.75
2023-04-27T06:30:30.635Z,102310.19
2023-04-27T06:32:57.148Z,102308.25
2023-04-27T06:35:23.654Z,102299.19
2023-04-27T06:37:50.145Z,102310.47
2023-04-27T06:40:16.794Z,102313.56
2023-04-27T06:42:43.332Z,102303.13
2023-04-27T06:45:10.267Z,102307.13
2023-04-27T06:47:36.764Z,102306.16
2023-04-27T06:50:04.076Z,102303.59
2023-04-27T06:52:33.160Z,102310.88
2023-04-27T06:54:59.715Z,102309.25
2023-04-27T06:57:26.406Z,102300.56
2023-04-27T06:59:52.848Z,102305.69
2023-04-27T07:02:19.518Z,102310.25
2023-04-27T07:04:46.528Z,102306.59
2023-04-27T07:07:13.366Z,102304.44
2023-04-27T07:09:39.844Z,102303.31
2023-04-27T07:12:06.609Z,102296.94
2023-04-27T07:14:33.901Z,102301.00
2023-04-27T07:17:00.435Z,102313.56
2023-04-27T07:19:26.957Z,102318.00
2023-04-27T07:21:53.571Z,102316.78
2023-04-27T07:24:20.628Z,102321.97
2023-04-27T07:26:48.142Z,102315.88
2023-04-27T07:29:26.350Z,102317.25
2023-04-27T07:31:55.696Z,102312.75
2023-04-27T07:34:22.690Z,102316.56
2023-04-27T07:36:49.341Z,102309.25
2023-04-27T07:39:15.950Z,102305.53
2023-04-27T07:41:42.911Z,102305.06
2023-04-27T07:44:09.369Z,102302.38
2023-04-27T07:46:35.975Z,102297.66
2023-04-27T07:49:02.491Z,102301.72
2023-04-27T07:51:29.283Z,102299.91
2023-04-27T07:53:56.391Z,102306.19
2023-04-27T07:56:22.950Z,102311.66
2023-04-27T07:58:49.412Z,102307.06
2023-04-27T08:01:17.188Z,102309.06
2023-04-27T08:03:44.749Z,102307.06
2023-04-27T08:06:12.218Z,102302.09
2023-04-27T08:08:39.008Z,102303.72
2023-04-27T08:11:08.844Z,102301.88
2023-04-27T08:13:35.342Z,102304.56
2023-04-27T08:16:01.905Z,102309.66
2023-04-27T08:18:28.579Z,102305.41
2023-04-27T08:20:55.544Z,102306.50
2023-04-27T08:23:22.055Z,102297.66
2023-04-27T08:25:48.631Z,102305.50
2023-04-27T08:28:15.416Z,102299.25
2023-04-27T08:30:42.604Z,102303.38
2023-04-27T08:33:09.166Z,102305.63
2023-04-27T08:35:35.733Z,102301.34
2023-04-27T08:38:02.244Z,102297.66
2023-04-27T08:40:28.921Z,102287.19
2023-04-27T08:43:00.706Z,102290.44
2023-04-27T08:45:28.104Z,102290.66
2023-04-27T08:47:54.832Z,102301.41
2023-04-27T08:50:24.128Z,102284.00
2023-04-27T08:52:52.056Z,102293.31
2023-04-27T08:55:18.882Z,102292.50
2023-04-27T08:57:56.154Z,102292.47
2023-04-27T09:00:24.379Z,102302.00
2023-04-27T09:02:51.063Z,102292.25
2023-04-27T09:05:19.120Z,102283.78
2023-04-27T09:08:08.063Z,102285.19
2023-04-27T09:10:45.241Z,102290.88
2023-04-27T09:13:11.778Z,102288.44
2023-04-27T09:15:49.926Z,102291.88
2023-04-27T09:18:17.503Z,102284.97
2023-04-27T09:20:51.950Z,102281.13
2023-04-27T09:23:35.609Z,102278.25
2023-04-27T09:26:09.588Z,102287.00
2023-04-27T09:28:39.428Z,102282.16
2023-04-27T09:31:09.007Z,102275.00
2023-04-27T09:33:36.132Z,102271.78
2023-04-27T09:36:05.256Z,102276.59
2023-04-27T09:38:31.964Z,102266.06
2023-04-27T09:40:59.999Z,102263.97
2023-04-27T09:43:28.608Z,102268.03
2023-04-27T09:45:56.016Z,102265.28
2023-04-27T09:48:24.118Z,102264.81
2023-04-27T09:50:52.251Z,102274.53
2023-04-27T09:53:23.371Z,102273.72
2023-04-27T09:55:51.571Z,102264.19
2023-04-27T09:58:56.148Z,102267.59
2023-04-27T10:01:56.806Z,102253.25
2023-04-27T10:04:57.572Z,102254.03
2023-04-27T10:07:27.926Z,102257.28
2023-04-27T10:18:53.288Z,102262.97
2023-04-27T10:21:20.431Z,102259.28
2023-04-27T10:23:48.862Z,102257.88
2023-04-27T10:26:25.580Z,102265.66
2023-04-27T10:29:09.206Z,102261.53
2023-04-27T10:31:36.109Z,102261.34
2023-04-27T10:34:12.255Z,102253.31
2023-04-27T10:36:41.074Z,102258.59
2023-04-27T10:39:27.646Z,102254.25
2023-04-27T10:41:59.982Z,102254.03
2023-04-27T10:44:29.026Z,102242.19
2023-04-27T10:46:57.697Z,102255.00
2023-04-27T10:49:24.526Z,102251.66
2023-04-27T10:51:51.535Z,102241.25
2023-04-27T10:54:19.086Z,102243.84
2023-04-27T10:56:48.315Z,102246.88
2023-04-27T10:59:15.149Z,102252.66
2023-04-27T11:01:42.387Z,102244.53
2023-04-27T11:04:09.106Z,102243.41
2023-04-27T11:06:43.037Z,102240.56
2023-04-27T11:09:14.753Z,102239.59
2023-04-27T11:11:45.735Z,102232.47
2023-04-27T11:14:16.903Z,102234.13
2023-04-27T11:16:49.968Z,102222.34
2023-04-27T11:19:16.896Z,102219.63
2023-04-27T11:21:44.379Z,102214.69
2023-04-27T11:24:12.153Z,102215.56
2023-04-27T11:26:40.641Z,102214.16
2023-04-27T11:29:18.209Z,102210.41
2023-04-27T11:31:49.457Z,102212.38
2023-04-27T11:34:17.463Z,102205.56
2023-04-27T11:36:44.623Z,102203.19
2023-04-27T11:39:21.881Z,102202.16
2023-04-27T11:41:48.615Z,102195.69
2023-04-27T11:44:15.151Z,102200.97
2023-04-27T11:46:45.102Z,102191.88
2023-04-27T11:49:12.830Z,102199.34
2023-04-27T11:51:40.518Z,102196.41
2023-04-27T11:54:07.606Z,102198.78
2023-04-27T11:56:41.822Z,102198.16
2023-04-27T11:59:23.283Z,102193.88
2023-04-27T12:01:51.700Z,102190.91
2023-04-27T12:04:18.883Z,102186.75
2023-04-27T12:06:48.063Z,102180.66
2023-04-27T12:09:17.582Z,102183.72
2023-04-27T12:11:44.450Z,102186.56
2023-04-27T12:14:11.574Z,102185.38
2023-04-27T12:16:38.353Z,102184.56
2023-04-27T12:19:05.060Z,102187.38
2023-04-27T12:21:32.326Z,102177.22
2023-04-27T12:23:58.918Z,102185.69
2023-04-27T12:26:26.938Z,102176.56
2023-04-27T12:28:58.119Z,102177.03
2023-04-27T12:31:27.685Z,102169.31
2023-04-27T12:33:54.682Z,102163.88
2023-04-27T12:36:21.304Z,102163.03
2023-04-27T12:38:47.913Z,102158.06
2023-04-27T12:41:16.097Z,102165.41
2023-04-27T12:43:47.809Z,102154.81
2023-04-27T12:46:14.744Z,102146.53
2023-04-27T12:48:41.696Z,102146.50
2023-04-27T12:51:11.374Z,102148.47
2023-04-27T12:53:38.040Z,102147.00
2023-04-27T12:56:07.312Z,102138.75
2023-04-27T12:58:34.000Z,102152.91
2023-04-27T13:01:00.968Z,102150.69
2023-04-27T13:03:27.771Z,102145.09
2023-04-27T13:05:54.436Z,102135.38
2023-04-27T13:08:21.410Z,102129.78
2023-04-27T13:10:48.015Z,102132.50
2023-04-27T13:13:17.253Z,102132.09
2023-04-27T13:15:43.902Z,102135.44
2023-04-27T13:18:10.654Z,102139.84
2023-04-27T13:20:37.856Z,102133.16
2023-04-27T13:23:04.854Z,102139.09
2023-04-27T13:25:31.421Z,102128.59
2023-04-27T13:27:58.122Z,102119.69
2023-04-27T13:30:24.651Z,102109.91
2023-04-27T13:32:52.493Z,102113.63
2023-04-27T13:35:19.780Z,102107.88
2023-04-27T13:37:48.123Z,102108.22
2023-04-27T13:40:14.766Z,102102.69
2023-04-27T13:42:41.617Z,102104.06
2023-04-27T13:45:08.601Z,102099.00
2023-04-27T13:47:37.159Z,102096.00
2023-04-27T13:50:06.298Z,102087.22
2023-04-27T13:52:32.990Z,102089.41
2023-04-27T13:54:59.546Z,102092.50
2023-04-27T13:57:26.240Z,102086.13
2023-04-27T13:59:53.085Z,102082.31
2023-04-27T14:02:20.108Z,102086.22
2023-04-27T14:04:46.866Z,102083.59
2023-04-27T14:07:13.443Z,102077.59
2023-04-27T14:09:39.904Z,102077.34
2023-04-27T14:12:06.387Z,102072.66
2023-04-27T14:14:32.885Z,102062.72
2023-04-27T14:16:59.440Z,102058.69
2023-04-27T14:19:27.315Z,102058.47
2023-04-27T14:21:53.832Z,102072.31
2023-04-27T14:24:20.629Z,102044.31
2023-04-27T14:26:48.807Z,102047.31
2023-04-27T14:29:15.872Z,102049.03
2023-04-27T14:31:43.016Z,102046.97
2023-04-27T14:34:09.576Z,102052.97
2023-04-27T14:36:36.210Z,102042.81
2023-04-27T14:39:04.442Z,102043.38
2023-04-27T14:41:31.016Z,102037.63
2023-04-27T14:43:57.521Z,102033.94
2023-04-27T14:46:24.147Z,102048.69
2023-04-27T14:48:51.389Z,102040.53
2023-04-27T14:51:18.038Z,102034.19
2023-04-27T14:53:44.570Z,102038.44
2023-04-27T14:56:11.632Z,102025.75
2023-04-27T14:58:38.670Z,102021.38
2023-04-27T15:01:06.069Z,102003.06
2023-04-27T15:03:33.434Z,102018.97
2023-04-27T15:06:00.913Z,102014.38
2023-04-27T15:08:27.530Z,102010.22
2023-04-27T15:10:57.629Z,102008.94
2023-04-27T15:13:24.817Z,102019.09
2023-04-27T15:15:59.021Z,102014.03
2023-04-27T15:18:25.999Z,102011.03
2023-04-27T15:20:56.798Z,102011.59
2023-04-27T15:23:24.368Z,102010.31
2023-04-27T15:25:54.349Z,102004.22
2023-04-27T15:28:21.244Z,102004.56
2023-04-27T15:30:47.859Z,101997.66
2023-04-27T15:33:15.842Z,101989.38
2023-04-27T15:35:42.714Z,101990.50
2023-04-27T15:38:12.169Z,101987.97
2023-04-27T15:40:39.303Z,101986.72
2023-04-27T15:43:06.059Z,101992.00
2023-04-27T15:45:32.962Z,101993.41
2023-04-27T15:47:59.633Z,101980.38
2023-04-27T15:50:26.327Z,101973.84
2023-04-27T15:52:52.987Z,101970.38
2023-04-27T15:55:19.650Z,101966.47
2023-04-27T15:57:46.206Z,101964.88
2023-04-27T16:00:15.186Z,101963.03
2023-04-27T16:02:42.050Z,101967.38
2023-04-27T16:05:09.718Z,101967.81
2023-04-27T16:07:37.356Z,101959.69
2023-04-27T16:10:04.264Z,101955.97
2023-04-27T16:12:31.000Z,101954.38
2023-04-27T16:14:57.728Z,101951.50
2023-04-27T16:17:25.453Z,101950.00
2023-04-27T16:19:51.978Z,101945.16
2023-04-27T16:22:18.669Z,101943.31
2023-04-27T16:24:45.351Z,101941.25
2023-04-27T16:27:12.113Z,101941.81
2023-04-27T16:29:38.791Z,101934.44
2023-04-27T16:32:05.950Z,101931.69
2023-04-27T16:34:32.594Z,101928.91
2023-04-27T16:36:59.104Z,101936.53
2023-04-27T16:39:25.760Z,101931.25
2023-04-27T16:41:52.513Z,101927.00
2023-04-27T16:44:18.972Z,101925.38
2023-04-27T16:46:45.838Z,101915.59
2023-04-27T16:49:12.663Z,101907.53
2023-04-27T16:51:39.429Z,101899.81
2023-04-27T16:54:06.035Z,101888.44
2023-04-27T16:56:35.012Z,101891.19
2023-04-27T16:59:04.994Z,101883.69
2023-04-27T17:01:31.554Z,101889.78
2023-04-27T17:03:59.613Z,101889.44
2023-04-27T17:06:27.837Z,101897.63
2023-04-27T17:08:56.224Z,101895.53
2023-04-27T17:11:23.252Z,101886.56
2023-04-27T17:13:50.137Z,101887.03
2023-04-27T17:16:17.942Z,101905.66
2023-04-27T17:18:45.695Z,101900.84
2023-04-27T17:21:12.730Z,101906.00
2023-04-27T17:23:41.413Z,101903.81
2023-04-27T17:26:08.591Z,101906.91
2023-04-27T17:28:35.282Z,101909.78
2023-04-27T17:31:01.959Z,101908.03
2023-04-27T17:33:28.489Z,101906.66
2023-04-27T17:35:54.997Z,101898.38
2023-04-27T17:38:21.517Z,101899.03
2023-04-27T17:40:50.352Z,101894.19
2023-04-27T17:43:16.849Z,101896.72
2023-04-27T17:45:43.451Z,101894.50
2023-04-27T17:48:10.086Z,101899.22
2023-04-27T17:50:38.444Z,101901.94
2023-04-27T17:53:04.887Z,101891.59
2023-04-27T17:55:31.372Z,101888.81
2023-04-27T17:57:57.986Z,101890.06
2023-04-27T18:00:24.546Z,101893.97
2023-04-27T18:02:51.398Z,101896.47
2023-04-27T18:05:18.220Z,101894.31
2023-04-27T18:07:46.223Z,101886.81
2023-04-27T18:10:13.134Z,101879.34
2023-04-27T18:12:39.678Z,101870.25
2023-04-27T18:15:09.454Z,101872.53
2023-04-27T18:17:36.517Z,101872.97
2023-04-27T18:20:09.405Z,101875.25
2023-04-27T18:22:36.277Z,101882.81
2023-04-27T18:25:02.776Z,101870.03
2023-04-27T18:27:31.751Z,101874.97
2023-04-27T18:29:58.432Z,101871.19
2023-04-27T18:32:25.005Z,101881.16
2023-04-27T18:34:51.442Z,101882.19
2023-04-27T18:37:17.955Z,101879.41
2023-04-27T18:39:44.514Z,101879.84
2023-04-27T18:42:11.069Z,101882.91
2023-04-27T18:44:37.879Z,101879.69
2023-04-27T18:47:04.562Z,101884.59
2023-04-27T18:49:31.151Z,101881.59
2023-04-27T18:51:57.702Z,101888.09
2023-04-27T18:54:24.261Z,101877.19
2023-04-27T18:56:53.054Z,101880.25
2023-04-27T18:59:20.352Z,101882.34
2023-04-27T19:01:47.152Z,101870.72
2023-04-27T19:04:14.530Z,101873.06
2023-04-27T19:06:41.311Z,101878.78
2023-04-27T19:09:09.213Z,101875.22
2023-04-27T19:11:35.984Z,101874.84
2023-04-27T19:14:02.624Z,101868.41
2023-04-27T19:16:29.148Z,101866.19
2023-04-27T19:18:55.958Z,101874.56
2023-04-27T19:21:22.574Z,101873.75
2023-04-27T19:23:49.217Z,101870.50
2023-04-27T19:26:16.094Z,101862.59
2023-04-27T19:28:42.635Z,101865.44
2023-04-27T19:31:10.435Z,101858.78
2023-04-27T19:33:37.129Z,101860.00
2023-04-27T19:36:04.024Z,101856.78
2023-04-27T19:38:33.335Z,101853.56
2023-04-27T19:41:00.140Z,101855.59
2023-04-27T19:43:26.815Z,101861.91
2023-04-27T19:45:53.290Z,101866.59
2023-04-27T19:48:19.787Z,101872.34
2023-04-27T19:50:46.308Z,101853.28
2023-04-27T19:53:12.851Z,101855.91
2023-04-27T19:55:40.542Z,101854.28
2023-04-27T19:58:07.385Z,101853.72
2023-04-27T20:00:34.250Z,101858.38
2023-04-27T20:03:01.223Z,101850.91
2023-04-27T20:05:28.219Z,101856.19
2023-04-27T20:07:54.991Z,101850.91
2023-04-27T20:10:21.880Z,101847.69
2023-04-27T20:12:56.809Z,101856.63
2023-04-27T20:15:24.570Z,101847.31
2023-04-27T20:17:52.130Z,101849.13
2023-04-27T20:20:19.224Z,101838.00
2023-04-27T20:22:46.013Z,101837.38
2023-04-27T20:25:14.616Z,101836.78
2023-04-27T20:27:41.818Z,101825.03
2023-04-27T20:30:09.067Z,101827.09
2023-04-27T20:32:41.472Z,101820.19
2023-04-27T20:35:11.224Z,101812.28
2023-04-27T20:37:38.697Z,101816.16
2023-04-27T20:40:06.249Z,101818.81
2023-04-27T20:42:32.866Z,101815.00
2023-04-27T20:44:59.454Z,101811.78
2023-04-27T20:47:26.101Z,101811.78
2023-04-27T20:49:53.471Z,101806.13
2023-04-27T20:52:20.009Z,101797.63
2023-04-27T20:54:46.578Z,101788.91
2023-04-27T20:57:14.416Z,101788.31
2023-04-27T20:59:41.569Z,101786.31
2023-04-27T21:02:08.463Z,101796.28
2023-04-27T21:04:35.059Z,101793.84
2023-04-27T21:07:01.865Z,101783.75
2023-04-27T21:09:28.364Z,101787.03
2023-04-27T21:11:54.815Z,101779.53
2023-04-27T21:14:21.429Z,101771.84
2023-04-27T21:16:48.011Z,101773.91
2023-04-27T21:19:16.572Z,101769.09
2023-04-27T21:21:43.241Z,101756.13
2023-04-27T21:24:09.781Z,101756.53
2023-04-27T21:26:36.331Z,101750.47
2023-04-27T21:29:05.427Z,101753.31
2023-04-27T21:31:33.023Z,101744.81
2023-04-27T21:33:59.741Z,101749.50
2023-04-27T21:36:26.240Z,101746.47
2023-04-27T21:38:52.704Z,101749.75
2023-04-27T21:41:19.221Z,101741.63
2023-04-27T21:43:46.146Z,101733.94
2023-04-27T21:46:12.668Z,101729.69
2023-04-27T21:48:39.300Z,101727.06
2023-04-27T21:51:05.968Z,101721.78
2023-04-27T21:53:32.622Z,101704.59
2023-04-27T21:55:59.642Z,101701.97
2023-04-27T21:58:26.294Z,101699.53
2023-04-27T22:00:52.806Z,101690.03
2023-04-27T22:03:19.671Z,101692.88
2023-04-27T22:05:48.832Z,101686.78
2023-04-27T22:08:17.304Z,101686.78
2023-04-27T22:10:45.353Z,101686.00
2023-04-27T22:15:41.676Z,101678.09
2023-04-27T22:18:08.260Z,101680.94
2023-04-27T22:20:35.090Z,101675.06
2023-04-27T22:23:01.809Z,101679.31
2023-04-27T22:25:28.483Z,101678.50
2023-04-27T22:27:55.028Z,101669.81
2023-04-27T22:30:21.497Z,101665.59
2023-04-27T22:32:48.112Z,101666.59
2023-04-27T22:35:25.666Z,101658.94
2023-04-27T22:37:57.939Z,101666.22
2023-04-27T22:40:24.727Z,101661.97
2023-04-27T22:42:51.862Z,101655.91
2023-04-27T22:45:18.442Z,101648.22
2023-04-27T22:47:45.868Z,101646.63
2023-04-27T22:50:13.220Z,101642.38
2023-04-27T22:52:42.257Z,101640.97
2023-04-27T22:55:11.157Z,101631.44
2023-04-27T22:57:39.017Z,101628.00
2023-04-27T23:00:07.388Z,101635.91
2023-04-27T23:02:33.994Z,101627.22
2023-04-27T23:05:00.920Z,101630.06
2023-04-27T23:07:28.560Z,101631.06
2023-04-27T23:09:55.892Z,101637.38
2023-04-27T23:12:22.428Z,101647.50
2023-04-27T23:14:49.019Z,101642.25
2023-04-27T23:17:16.064Z,101630.91
2023-04-27T23:19:42.647Z,101623.22
2023-04-27T23:22:09.185Z,101627.31
2023-04-27T23:24:35.788Z,101628.53
2023-04-27T23:27:02.346Z,101624.50
2023-04-27T23:29:30.800Z,101620.25
2023-04-27T23:32:04.650Z,101607.91
2023-04-27T23:34:33.974Z,101606.28
2023-04-27T23:37:00.776Z,101593.94
2023-04-27T23:39:27.967Z,101590.97
2023-04-27T23:41:54.615Z,101577.00
2023-04-27T23:44:21.477Z,101570.13
2023-04-27T23:46:48.061Z,101566.09
2023-04-27T23:49:14.707Z,101566.28
2023-04-27T23:51:41.378Z,101557.00
2023-04-27T23:54:07.891Z,101560.06
2023-04-27T23:56:34.655Z,101551.34
2023-04-27T23:59:01.106Z,101546.53
